Time;durP1;ratioP1;P1;durP2;ratioP2;P2;SDS_P1;SDS_P2;PMS_P1;PMS_P2;Temp;Humidity;BMP_temperature;BMP_pressure;BME280_temperature;BME280_humidity;BME280_pressure;Samples;Min_cycle;Max_cycle;Signal;HPM_P1;HPM_P2
2021/05/26 00:02:24;;;;;;;1999.90;999.90;;;10.10;99.90;;;;;;5071361;28;20742;-67
2021/05/26 00:04:50;;;;;;;1999.90;999.90;;;10.10;99.90;;;;;;5070715;28;20198;-67
2021/05/26 00:07:15;;;;;;;1999.90;999.90;;;10.00;99.90;;;;;;5070598;28;20204;-67
2021/05/26 00:09:41;;;;;;;1999.90;999.90;;;10.10;99.90;;;;;;5070326;28;20194;-67
2021/05/26 00:12:07;;;;;;;1999.90;999.90;;;10.00;99.90;;;;;;5071245;28;20243;-67
2021/05/26 00:14:33;;;;;;;1999.90;999.90;;;10.00;99.90;;;;;;5071187;28;20188;-67
2021/05/26 00:16:58;;;;;;;1999.90;999.90;;;10.00;99.90;;;;;;5070509;28;20518;-67
2021/05/26 00:19:24;;;;;;;1999.90;999.90;;;10.00;99.90;;;;;;5071205;28;20209;-67
2021/05/26 00:21:50;;;;;;;1999.90;999.90;;;10.00;99.90;;;;;;5071109;28;20169;-67
2021/05/26 00:24:16;;;;;;;1999.90;999.90;;;10.00;99.90;;;;;;5071043;28;20258;-67
2021/05/26 00:26:44;;;;;;;1999.90;999.90;;;10.00;99.90;;;;;;5070311;28;20587;-66
2021/05/26 00:29:10;;;;;;;1999.90;999.90;;;10.00;99.90;;;;;;5065436;28;20861;-66
2021/05/26 00:31:35;;;;;;;1999.90;999.90;;;10.00;99.90;;;;;;5054704;28;20408;-67
2021/05/26 00:34:01;;;;;;;1999.90;999.90;;;9.90;99.90;;;;;;5054815;28;20164;-67
2021/05/26 00:36:27;;;;;;;1999.90;999.90;;;9.90;99.90;;;;;;5053717;28;20550;-67
2021/05/26 00:38:52;;;;;;;1999.90;999.90;;;9.90;99.90;;;;;;5069520;28;20637;-67
2021/05/26 00:41:18;;;;;;;1999.90;999.90;;;9.90;99.90;;;;;;5070102;28;20202;-67
2021/05/26 00:43:43;;;;;;;1999.90;999.90;;;9.90;99.90;;;;;;5074515;28;20165;-67
2021/05/26 00:46:09;;;;;;;1999.90;999.90;;;9.90;99.90;;;;;;5073734;28;20289;-67
2021/05/26 00:48:35;;;;;;;1999.90;999.90;;;9.90;99.90;;;;;;5074448;28;20178;-67
2021/05/26 00:51:00;;;;;;;1999.90;999.90;;;9.80;99.90;;;;;;5074376;28;20172;-67
2021/05/26 00:53:28;;;;;;;1999.90;999.90;;;9.80;99.90;;;;;;5074320;28;20674;-67
2021/05/26 00:55:54;;;;;;;1999.90;999.90;;;9.90;99.90;;;;;;5072302;28;20176;-68
2021/05/26 00:58:20;;;;;;;1999.90;999.90;;;9.90;99.90;;;;;;5074134;28;20431;-67
2021/05/26 01:00:45;;;;;;;1999.90;999.90;;;9.90;99.90;;;;;;5074506;28;20745;-67
2021/05/26 01:03:11;;;;;;;1999.90;999.90;;;9.90;99.90;;;;;;5074311;28;20168;-67
2021/05/26 01:05:37;;;;;;;1999.90;999.90;;;10.00;99.90;;;;;;5073278;28;20532;-67
2021/05/26 01:08:04;;;;;;;1999.90;999.90;;;9.90;99.90;;;;;;5074046;28;20227;-67
2021/05/26 01:10:33;;;;;;;1999.90;999.90;;;10.00;99.90;;;;;;5074260;28;21117;-67
2021/05/26 01:12:58;;;;;;;1999.90;999.90;;;10.00;99.90;;;;;;5074078;28;20396;-67
2021/05/26 01:15:24;;;;;;;1999.90;999.90;;;10.00;99.90;;;;;;5073247;28;20469;-67
2021/05/26 01:17:52;;;;;;;1999.90;999.90;;;10.00;99.90;;;;;;5073871;28;20192;-67
2021/05/26 01:20:29;;;;;;;1999.90;999.90;;;10.00;99.90;;;;;;5073704;28;20412;-67
2021/05/26 01:23:00;;;;;;;1999.90;999.90;;;10.10;99.90;;;;;;5073865;28;20391;-68
2021/05/26 01:25:26;;;;;;;1999.90;999.90;;;10.10;99.90;;;;;;5072999;28;20435;-67
2021/05/26 01:27:52;;;;;;;1999.90;999.90;;;10.10;99.90;;;;;;5073689;28;20426;-67
2021/05/26 01:30:18;;;;;;;1999.90;999.90;;;10.10;99.90;;;;;;5073719;28;20166;-67
2021/05/26 01:32:46;;;;;;;1999.90;999.90;;;10.20;99.90;;;;;;5073452;28;20451;-67
2021/05/26 01:35:14;;;;;;;1999.90;999.90;;;10.10;99.90;;;;;;5073087;28;20410;-67
2021/05/26 01:37:42;;;;;;;1999.90;999.90;;;10.10;99.90;;;;;;5073482;28;20476;-67
2021/05/26 01:40:10;;;;;;;1999.90;999.90;;;10.10;99.90;;;;;;5073408;28;20461;-67
2021/05/26 01:42:36;;;;;;;1999.90;999.90;;;10.00;99.90;;;;;;5072666;28;20400;-67
2021/05/26 01:45:06;;;;;;;1999.90;999.90;;;10.00;99.90;;;;;;5072604;28;20482;-67
2021/05/26 01:47:31;;;;;;;1999.90;999.90;;;10.00;99.90;;;;;;5073486;28;20907;-67
2021/05/26 01:49:57;;;;;;;1999.90;999.90;;;10.00;99.90;;;;;;5073764;28;20400;-67
2021/05/26 01:52:23;;;;;;;1999.90;999.90;;;10.00;99.90;;;;;;5073591;28;20690;-67
2021/05/26 01:54:49;;;;;;;1999.90;999.90;;;9.90;99.90;;;;;;5073000;28;20408;-68
2021/05/26 01:57:14;;;;;;;1999.90;999.90;;;10.00;99.90;;;;;;5073721;28;20255;-67
2021/05/26 01:59:40;;;;;;;1999.90;999.90;;;9.90;99.90;;;;;;5073454;28;20755;-68
2021/05/26 02:02:06;;;;;;;1999.90;999.90;;;9.90;99.90;;;;;;5073444;28;20173;-68
2021/05/26 02:04:33;;;;;;;1999.90;999.90;;;9.90;99.90;;;;;;5073350;28;20456;-67
2021/05/26 02:07:08;;;;;;;1999.90;999.90;;;9.80;99.90;;;;;;5072041;28;20714;-67
2021/05/26 02:09:37;;;;;;;1999.90;999.90;;;9.80;99.90;;;;;;5073094;28;20396;-67
2021/05/26 02:12:22;;;;;;;1999.90;999.90;;;9.80;99.90;;;;;;5072771;28;20411;-67
2021/05/26 02:14:48;;;;;;;1999.90;999.90;;;9.80;99.90;;;;;;5072224;28;20893;-67
2021/05/26 02:17:14;;;;;;;1999.90;999.90;;;9.80;99.90;;;;;;5073480;28;20504;-68
2021/05/26 02:19:39;;;;;;;1999.90;999.90;;;9.80;99.90;;;;;;5074525;28;20845;-67
2021/05/26 02:22:05;;;;;;;1999.90;999.90;;;9.90;99.90;;;;;;5074628;28;20169;-68
2021/05/26 02:24:31;;;;;;;1999.90;999.90;;;9.80;99.90;;;;;;5074763;28;20201;-68
2021/05/26 02:26:56;;;;;;;1999.90;999.90;;;9.90;99.90;;;;;;5074357;28;20239;-68
2021/05/26 02:29:22;;;;;;;1999.90;999.90;;;9.80;99.90;;;;;;5074781;28;20174;-67
2021/05/26 02:31:48;;;;;;;1999.90;999.90;;;9.90;99.90;;;;;;5075053;28;20581;-67
2021/05/26 02:34:14;;;;;;;1999.90;999.90;;;9.80;99.90;;;;;;5073928;28;20169;-68
2021/05/26 02:36:39;;;;;;;1999.90;999.90;;;9.90;99.90;;;;;;5072265;28;20349;-67
2021/05/26 02:39:06;;;;;;;1999.90;999.90;;;9.90;99.90;;;;;;5072829;28;20432;-67
2021/05/26 02:41:32;;;;;;;1999.90;999.90;;;9.90;99.90;;;;;;5072949;28;20174;-68
2021/05/26 02:43:58;;;;;;;1999.90;999.90;;;9.90;99.90;;;;;;5072776;28;20420;-67
2021/05/26 02:46:24;;;;;;;1999.90;999.90;;;9.90;99.90;;;;;;5071867;28;20449;-67
2021/05/26 02:48:50;;;;;;;1999.90;999.90;;;9.90;99.90;;;;;;5072852;28;20402;-67
2021/05/26 02:51:15;;;;;;;1999.90;999.90;;;9.90;99.90;;;;;;5072476;28;20162;-68
2021/05/26 02:53:41;;;;;;;1999.90;999.90;;;9.80;99.90;;;;;;5072299;28;20256;-67
2021/05/26 02:56:06;;;;;;;1999.90;999.90;;;9.90;99.90;;;;;;5071293;28;20645;-68
2021/05/26 02:58:32;;;;;;;1999.90;999.90;;;9.90;99.90;;;;;;5072116;28;20588;-67
2021/05/26 03:00:57;;;;;;;1999.90;999.90;;;9.80;99.90;;;;;;5072180;28;20176;-67
2021/05/26 03:03:23;;;;;;;1999.90;999.90;;;9.80;99.90;;;;;;5071863;28;20203;-67
2021/05/26 03:05:49;;;;;;;1999.90;999.90;;;9.70;99.90;;;;;;5071158;28;20686;-67
2021/05/26 03:08:14;;;;;;;1999.90;999.90;;;9.70;99.90;;;;;;5071904;28;20258;-67
2021/05/26 03:10:40;;;;;;;1999.90;999.90;;;9.70;99.90;;;;;;5071854;28;20181;-67
2021/05/26 03:13:05;;;;;;;1999.90;999.90;;;9.70;99.90;;;;;;5072010;28;20166;-67
2021/05/26 03:15:31;;;;;;;1999.90;999.90;;;9.70;99.90;;;;;;5071089;28;20644;-67
2021/05/26 03:17:57;;;;;;;1999.90;999.90;;;9.70;99.90;;;;;;5071790;28;20200;-67
2021/05/26 03:20:23;;;;;;;1999.90;999.90;;;9.70;99.90;;;;;;5070579;28;20244;-67
2021/05/26 03:22:48;;;;;;;1999.90;999.90;;;9.70;99.90;;;;;;5071830;28;20170;-67
2021/05/26 03:25:15;;;;;;;1999.90;999.90;;;9.70;99.90;;;;;;5071128;28;20456;-67
2021/05/26 03:27:41;;;;;;;1999.90;999.90;;;9.70;99.90;;;;;;5072061;28;20683;-68
2021/05/26 03:30:09;;;;;;;1999.90;999.90;;;9.70;99.90;;;;;;5072541;28;20812;-67
2021/05/26 03:32:37;;;;;;;1999.90;999.90;;;9.70;99.90;;;;;;5072238;28;20418;-67
2021/05/26 03:35:03;;;;;;;1999.90;999.90;;;9.70;99.90;;;;;;5072018;28;20770;-68
2021/05/26 03:37:29;;;;;;;1999.90;999.90;;;9.70;99.90;;;;;;5072585;28;20432;-67
2021/05/26 03:39:55;;;;;;;1999.90;999.90;;;9.70;99.90;;;;;;5072058;28;20415;-67
2021/05/26 03:42:21;;;;;;;1999.90;999.90;;;9.80;99.90;;;;;;5071628;28;20178;-67
2021/05/26 03:44:46;;;;;;;1999.90;999.90;;;9.80;99.90;;;;;;5070815;28;20664;-68
2021/05/26 03:47:12;;;;;;;1999.90;999.90;;;9.80;99.90;;;;;;5071361;28;20424;-68
2021/05/26 03:49:37;;;;;;;1999.90;999.90;;;9.80;99.90;;;;;;5071554;28;20188;-67
2021/05/26 03:52:03;;;;;;;1999.90;999.90;;;9.80;99.90;;;;;;5071542;28;20210;-67
2021/05/26 03:54:29;;;;;;;1999.90;999.90;;;9.90;99.90;;;;;;5071472;28;20183;-67
2021/05/26 03:56:54;;;;;;;1999.90;999.90;;;9.90;99.90;;;;;;5070668;28;20228;-67
2021/05/26 03:59:20;;;;;;;1999.90;999.90;;;10.00;99.90;;;;;;5071454;28;20179;-68
2021/05/26 04:01:45;;;;;;;1999.90;999.90;;;9.90;99.90;;;;;;5071343;28;20267;-67
2021/05/26 04:04:11;;;;;;;1999.90;999.90;;;9.90;99.90;;;;;;5071818;28;20169;-68
2021/05/26 04:06:37;;;;;;;1999.90;999.90;;;9.90;99.90;;;;;;5074297;28;20244;-67
2021/05/26 04:09:04;;;;;;;1999.90;999.90;;;9.90;99.90;;;;;;5075214;28;20783;-68
2021/05/26 04:11:29;;;;;;;1999.90;999.90;;;9.90;99.90;;;;;;5075382;28;20171;-67
2021/05/26 04:13:55;;;;;;;1999.90;999.90;;;10.00;99.90;;;;;;5075021;28;20413;-68
2021/05/26 04:16:20;;;;;;;1999.90;999.90;;;9.90;99.90;;;;;;5074286;28;20170;-67
2021/05/26 04:18:46;;;;;;;1999.90;999.90;;;9.90;99.90;;;;;;5075609;28;20263;-67
2021/05/26 04:21:12;;;;;;;1999.90;999.90;;;10.00;99.90;;;;;;5075039;28;20169;-67
2021/05/26 04:23:37;;;;;;;1999.90;999.90;;;10.00;99.90;;;;;;5074872;28;20227;-67
2021/05/26 04:26:03;;;;;;;1999.90;999.90;;;10.00;99.90;;;;;;5073971;28;20188;-67
2021/05/26 04:28:29;;;;;;;1999.90;999.90;;;10.00;99.90;;;;;;5074807;28;20197;-68
2021/05/26 04:30:55;;;;;;;1999.90;999.90;;;10.00;99.90;;;;;;5075048;28;20816;-67
2021/05/26 04:33:20;;;;;;;1999.90;999.90;;;10.00;99.90;;;;;;5075175;28;20844;-67
2021/05/26 04:35:46;;;;;;;1999.90;999.90;;;10.00;99.90;;;;;;5074333;28;20244;-67
2021/05/26 04:38:13;;;;;;;1999.90;999.90;;;10.00;99.90;;;;;;5074831;28;20202;-67
2021/05/26 04:40:38;;;;;;;1999.90;999.90;;;10.00;99.90;;;;;;5075139;28;20184;-67
2021/05/26 04:43:04;;;;;;;1999.90;999.90;;;10.00;99.90;;;;;;5074859;28;20767;-67
2021/05/26 04:45:30;;;;;;;1999.90;999.90;;;10.00;99.90;;;;;;5073683;28;20200;-67
2021/05/26 04:47:56;;;;;;;1999.90;999.90;;;10.00;99.90;;;;;;5074131;28;20313;-67
2021/05/26 04:50:24;;;;;;;1999.90;999.90;;;10.10;99.90;;;;;;5074437;28;20175;-67
2021/05/26 04:52:50;;;;;;;1999.90;999.90;;;10.10;99.90;;;;;;5074397;28;20164;-67
2021/05/26 04:55:15;;;;;;;1999.90;999.90;;;10.10;99.90;;;;;;5073921;28;20394;-66
2021/05/26 04:57:41;;;;;;;1999.90;999.90;;;10.10;99.90;;;;;;5075615;28;20567;-68
2021/05/26 05:00:07;;;;;;;1999.90;999.90;;;10.10;99.90;;;;;;5070907;28;20172;-68
2021/05/26 05:02:33;;;;;;;1999.90;999.90;;;10.10;99.90;;;;;;5066390;28;20175;-68
2021/05/26 05:04:58;;;;;;;1999.90;999.90;;;10.10;99.90;;;;;;5075537;28;20458;-68
2021/05/26 05:07:24;;;;;;;1999.90;999.90;;;10.10;99.90;;;;;;5076192;28;20254;-68
2021/05/26 05:09:50;;;;;;;1999.90;999.90;;;10.00;99.90;;;;;;5076227;28;20173;-67
2021/05/26 05:12:15;;;;;;;1999.90;999.90;;;10.10;99.90;;;;;;5068447;28;20599;-67
2021/05/26 05:14:41;;;;;;;1999.90;999.90;;;10.10;99.90;;;;;;5072631;28;20667;-69
2021/05/26 05:17:06;;;;;;;1999.90;999.90;;;10.10;99.90;;;;;;5072447;28;20271;-67
2021/05/26 05:19:32;;;;;;;1999.90;999.90;;;10.10;99.90;;;;;;5074084;28;20537;-67
2021/05/26 05:21:58;;;;;;;1999.90;999.90;;;10.20;99.90;;;;;;5074194;28;20178;-68
2021/05/26 05:24:24;;;;;;;1999.90;999.90;;;10.30;99.90;;;;;;5073771;28;20242;-67
2021/05/26 05:26:50;;;;;;;1999.90;999.90;;;10.40;99.90;;;;;;5073000;28;20227;-67
2021/05/26 05:29:15;;;;;;;1999.90;999.90;;;10.40;99.90;;;;;;5074075;28;20441;-67
2021/05/26 05:31:41;;;;;;;1999.90;999.90;;;10.40;99.90;;;;;;5074162;28;20202;-67
2021/05/26 05:34:06;;;;;;;1999.90;999.90;;;10.50;99.90;;;;;;5074230;28;20521;-67
2021/05/26 05:36:32;;;;;;;1999.90;999.90;;;10.50;99.90;;;;;;5073107;28;20196;-67
2021/05/26 05:38:58;;;;;;;1999.90;999.90;;;10.50;99.90;;;;;;5073888;28;20178;-67
2021/05/26 05:41:23;;;;;;;1999.90;999.90;;;10.50;99.90;;;;;;5073623;28;20204;-68
2021/05/26 05:43:49;;;;;;;1999.90;999.90;;;10.50;99.90;;;;;;5073400;28;20510;-68
2021/05/26 05:46:14;;;;;;;1999.90;999.90;;;10.50;99.90;;;;;;5072537;28;20250;-68
2021/05/26 05:48:40;;;;;;;1999.90;999.90;;;10.60;99.90;;;;;;5075449;28;20614;-68
2021/05/26 05:51:06;;;;;;;1999.90;999.90;;;10.60;99.90;;;;;;5076323;28;20168;-67
2021/05/26 05:53:31;;;;;;;1999.90;999.90;;;10.70;99.90;;;;;;5077093;28;20642;-68
2021/05/26 05:56:00;;;;;;;1999.90;999.90;;;10.70;99.90;;;;;;5075419;28;20179;-67
2021/05/26 05:58:25;;;;;;;1999.90;999.90;;;10.70;99.90;;;;;;5075817;28;20274;-67
2021/05/26 06:00:51;;;;;;;1999.90;999.90;;;10.80;99.90;;;;;;5076366;28;20897;-67
2021/05/26 06:03:17;;;;;;;1999.90;999.90;;;10.90;99.90;;;;;;5076060;28;20201;-67
2021/05/26 06:05:43;;;;;;;1999.90;999.90;;;11.00;99.90;;;;;;5075233;28;20498;-67
2021/05/26 06:08:09;;;;;;;1999.90;999.90;;;11.00;99.90;;;;;;5073225;28;20336;-68
2021/05/26 06:10:35;;;;;;;1999.90;999.90;;;11.00;99.90;;;;;;5073248;28;20533;-67
2021/05/26 06:13:03;;;;;;;1999.90;999.90;;;11.00;99.90;;;;;;5072974;28;20171;-68
2021/05/26 06:15:29;;;;;;;1999.90;999.90;;;11.00;99.90;;;;;;5072380;28;20192;-68
2021/05/26 06:17:58;;;;;;;1999.90;999.90;;;11.00;99.90;;;;;;5072622;28;20425;-67
2021/05/26 06:20:24;;;;;;;1999.90;999.90;;;11.00;99.90;;;;;;5072600;28;20169;-67
2021/05/26 06:22:49;;;;;;;1999.90;999.90;;;11.00;99.90;;;;;;5072570;28;20410;-68
2021/05/26 06:25:15;;;;;;;1999.90;999.90;;;11.20;99.90;;;;;;5071838;28;20197;-68
2021/05/26 06:27:40;;;;;;;1999.90;999.90;;;11.30;99.90;;;;;;5072228;28;20190;-68
2021/05/26 06:30:07;;;;;;;1999.90;999.90;;;11.30;99.90;;;;;;5072515;28;20176;-68
2021/05/26 06:32:32;;;;;;;1999.90;999.90;;;11.40;99.90;;;;;;5072406;28;20231;-67
2021/05/26 06:34:58;;;;;;;1999.90;999.90;;;11.50;99.90;;;;;;5071600;28;20413;-67
2021/05/26 06:37:24;;;;;;;1999.90;999.90;;;11.50;99.90;;;;;;5072344;28;20209;-67
2021/05/26 06:39:49;;;;;;;1999.90;999.90;;;11.60;99.90;;;;;;5071081;28;20223;-68
2021/05/26 06:42:15;;;;;;;1999.90;999.90;;;11.70;99.90;;;;;;5073031;28;20177;-67
2021/05/26 06:44:41;;;;;;;1999.90;999.90;;;11.80;99.90;;;;;;5072082;28;20198;-67
2021/05/26 06:47:08;;;;;;;1999.90;999.90;;;11.90;99.90;;;;;;5072068;28;20265;-68
2021/05/26 06:49:34;;;;;;;1999.90;999.90;;;12.00;99.90;;;;;;5072644;28;20220;-68
2021/05/26 06:51:59;;;;;;;1999.90;999.90;;;12.00;99.90;;;;;;5072892;28;20836;-68
2021/05/26 06:54:25;;;;;;;1999.90;999.90;;;12.20;99.90;;;;;;5072871;28;20213;-68
2021/05/26 06:56:51;;;;;;;1999.90;999.90;;;12.30;99.90;;;;;;5072247;28;20592;-68
2021/05/26 06:59:17;;;;;;;1999.90;999.90;;;12.40;99.90;;;;;;5072782;28;20451;-68
2021/05/26 07:01:42;;;;;;;1999.90;999.90;;;12.40;99.90;;;;;;5072634;28;20178;-68
2021/05/26 07:04:08;;;;;;;1999.90;999.90;;;12.50;99.90;;;;;;5072626;28;20537;-68
2021/05/26 07:06:33;;;;;;;1999.90;999.90;;;12.60;99.90;;;;;;5073738;28;20213;-67
2021/05/26 07:08:59;;;;;;;1999.90;999.90;;;12.70;99.90;;;;;;5072127;28;20177;-67
2021/05/26 07:11:25;;;;;;;1999.90;999.90;;;12.70;99.90;;;;;;5071877;28;20625;-67
2021/05/26 07:13:50;;;;;;;1999.90;999.90;;;12.70;99.90;;;;;;5071991;28;20196;-67
2021/05/26 07:16:16;;;;;;;1999.90;999.90;;;12.60;99.90;;;;;;5071082;28;20195;-68
2021/05/26 07:18:46;;;;;;;1999.90;999.90;;;12.50;99.90;;;;;;5071717;28;20304;-67
2021/05/26 07:21:12;;;;;;;1999.90;999.90;;;12.50;99.90;;;;;;5071801;28;20171;-69
2021/05/26 07:23:38;;;;;;;1999.90;999.90;;;12.60;99.90;;;;;;5071829;28;20492;-68
2021/05/26 07:26:03;;;;;;;1999.90;999.90;;;12.60;99.90;;;;;;5070877;28;20591;-68
2021/05/26 07:28:29;;;;;;;1999.90;999.90;;;12.60;99.90;;;;;;5071757;28;20191;-68
2021/05/26 07:30:54;;;;;;;1999.90;999.90;;;12.60;99.90;;;;;;5071696;28;20250;-68
2021/05/26 07:33:20;;;;;;;1999.90;999.90;;;12.60;99.90;;;;;;5071625;28;20268;-68
2021/05/26 07:35:46;;;;;;;1999.90;999.90;;;12.50;99.90;;;;;;5070985;28;20178;-68
2021/05/26 07:38:12;;;;;;;1999.90;999.90;;;12.50;99.90;;;;;;5071617;28;20248;-68
2021/05/26 07:40:38;;;;;;;1999.90;999.90;;;12.50;99.90;;;;;;5074840;28;20220;-67
2021/05/26 07:43:04;;;;;;;1999.90;999.90;;;12.60;99.90;;;;;;5075787;28;20411;-68
2021/05/26 07:45:30;;;;;;;1999.90;999.90;;;12.70;99.90;;;;;;5076350;28;20540;-69
2021/05/26 07:47:55;;;;;;;1999.90;999.90;;;12.60;99.90;;;;;;5078327;28;20730;-68
2021/05/26 07:50:21;;;;;;;1999.90;999.90;;;12.80;99.90;;;;;;5075620;28;20749;-68
2021/05/26 07:52:47;;;;;;;1999.90;999.90;;;12.90;99.90;;;;;;5075590;28;20163;-68
2021/05/26 07:55:13;;;;;;;1999.90;999.90;;;13.10;99.90;;;;;;5074764;28;20218;-68
2021/05/26 07:57:39;;;;;;;1999.90;999.90;;;13.30;99.90;;;;;;5075415;28;20182;-68
2021/05/26 08:00:07;;;;;;;1999.90;999.90;;;13.30;99.90;;;;;;5075471;28;20452;-68
2021/05/26 08:02:32;;;;;;;1999.90;999.90;;;13.50;99.90;;;;;;5075523;28;20780;-68
2021/05/26 08:04:58;;;;;;;1999.90;999.90;;;13.60;99.90;;;;;;5074572;28;20456;-67
2021/05/26 08:07:23;;;;;;;1999.90;999.90;;;13.70;99.90;;;;;;5075609;28;20277;-68
2021/05/26 08:09:49;;;;;;;1999.90;999.90;;;13.90;99.90;;;;;;5075705;28;20864;-68
2021/05/26 08:12:15;;;;;;;1999.90;999.90;;;14.10;99.90;;;;;;5078302;28;20176;-68
2021/05/26 08:14:41;;;;;;;1999.90;999.90;;;14.30;99.90;;;;;;5079228;28;20180;-68
2021/05/26 08:17:06;;;;;;;1999.90;999.90;;;14.30;99.90;;;;;;5079559;28;20179;-69
2021/05/26 08:19:32;;;;;;;1999.90;999.90;;;14.10;99.90;;;;;;5079702;28;20483;-68
2021/05/26 08:21:58;;;;;;;1999.90;999.90;;;13.90;99.90;;;;;;5079345;28;20168;-68
2021/05/26 08:24:24;;;;;;;1999.90;999.90;;;13.50;99.90;;;;;;5095270;28;20166;-69
2021/05/26 08:26:51;;;;;;;1999.90;999.90;;;13.30;99.90;;;;;;5095170;28;20843;-68
2021/05/26 08:29:18;;;;;;;1999.90;999.90;;;13.10;99.90;;;;;;5099735;28;20204;-66
2021/05/26 08:31:44;;;;;;;1999.90;999.90;;;13.00;99.90;;;;;;5104702;28;20797;-66
2021/05/26 08:34:10;;;;;;;1999.90;999.90;;;12.90;99.90;;;;;;5105865;28;20400;-69
2021/05/26 08:36:36;;;;;;;1999.90;999.90;;;12.80;99.90;;;;;;5098569;28;20489;-67
2021/05/26 08:39:03;;;;;;;1999.90;999.90;;;12.70;99.90;;;;;;5100384;28;20167;-68
2021/05/26 08:41:29;;;;;;;1999.90;999.90;;;12.80;99.90;;;;;;5101175;28;20166;-68
2021/05/26 08:43:55;;;;;;;1999.90;999.90;;;13.00;99.90;;;;;;5097794;28;20434;-68
2021/05/26 08:46:22;;;;;;;1999.90;999.90;;;13.10;99.90;;;;;;5099072;28;20648;-68
2021/05/26 08:48:51;;;;;;;1999.90;999.90;;;13.30;99.90;;;;;;5101202;28;20942;-68
2021/05/26 08:51:18;;;;;;;1999.90;999.90;;;13.40;99.90;;;;;;5100623;28;20396;-68
2021/05/26 08:53:44;;;;;;;1999.90;999.90;;;13.50;99.90;;;;;;5100461;28;20407;-67
2021/05/26 08:56:09;;;;;;;1999.90;999.90;;;13.60;99.90;;;;;;5100949;28;20459;-67
2021/05/26 08:58:39;;;;;;;1999.90;999.90;;;13.70;99.90;;;;;;5097344;28;20424;-67
2021/05/26 09:01:05;;;;;;;1999.90;999.90;;;13.80;99.90;;;;;;5095776;28;20168;-69
2021/05/26 09:03:32;;;;;;;1999.90;999.90;;;14.00;99.90;;;;;;5094159;28;20444;-68
2021/05/26 09:05:58;;;;;;;1999.90;999.90;;;14.10;99.90;;;;;;5093895;28;20448;-69
2021/05/26 09:08:26;;;;;;;1999.90;999.90;;;14.10;99.90;;;;;;5094002;28;20540;-68
2021/05/26 09:10:51;;;;;;;1999.90;999.90;;;14.10;99.90;;;;;;5094638;28;20400;-69
2021/05/26 09:13:46;;;;;;;1999.90;999.90;;;14.10;99.90;;;;;;5094351;28;20409;-69
2021/05/26 09:16:24;;;;;;;1999.90;999.90;;;14.20;99.90;;;;;;5088861;28;20191;-68
2021/05/26 09:19:06;;;;;;;1999.90;999.90;;;14.10;99.90;;;;;;5094507;28;20404;-68
2021/05/26 09:21:50;;;;;;;1999.90;999.90;;;14.30;99.90;;;;;;5093634;28;20406;-68
2021/05/26 09:24:19;;;;;;;1999.90;999.90;;;14.40;99.90;;;;;;5093761;28;20427;-68
2021/05/26 09:26:55;;;;;;;1999.90;999.90;;;14.30;99.90;;;;;;5093132;28;20965;-68
2021/05/26 09:29:28;;;;;;;1999.90;999.90;;;14.20;99.90;;;;;;5093486;28;20492;-68
2021/05/26 09:32:11;;;;;;;1999.90;999.90;;;14.10;99.90;;;;;;5093418;28;20413;-68
2021/05/26 09:34:39;;;;;;;1999.90;999.90;;;13.90;99.90;;;;;;5065266;28;20422;-68
2021/05/26 09:37:05;;;;;;;1999.90;999.90;;;13.80;99.90;;;;;;5066605;28;20458;-68
2021/05/26 09:39:49;;;;;;;1999.90;999.90;;;13.60;99.90;;;;;;5073880;28;20810;-69
2021/05/26 09:42:36;;;;;;;1999.90;999.90;;;13.50;99.90;;;;;;5072959;28;20432;-68
2021/05/26 09:45:25;;;;;;;1999.90;999.90;;;13.50;99.90;;;;;;5066968;28;20461;-69
2021/05/26 09:47:53;;;;;;;1999.90;999.90;;;13.40;99.90;;;;;;5052975;28;20452;-69
2021/05/26 09:50:33;;;;;;;1999.90;999.90;;;13.30;99.90;;;;;;5052965;28;20904;-68
2021/05/26 09:53:13;;;;;;;1999.90;999.90;;;13.10;99.90;;;;;;5053290;28;20410;-69
2021/05/26 09:55:46;;;;;;;1999.90;999.90;;;13.10;99.90;;;;;;5052032;28;20441;-68
2021/05/26 09:58:14;;;;;;;1999.90;999.90;;;13.10;99.90;;;;;;5052749;28;20422;-69
2021/05/26 10:00:42;;;;;;;1999.90;999.90;;;13.00;99.90;;;;;;5052627;28;20494;-69
2021/05/26 10:03:08;;;;;;;1999.90;999.90;;;13.00;99.90;;;;;;5052101;28;21098;-69
2021/05/26 10:05:34;;;;;;;1999.90;999.90;;;13.00;99.90;;;;;;5051665;28;20548;-71
2021/05/26 10:08:05;;;;;;;1999.90;999.90;;;13.10;99.90;;;;;;5048715;28;20457;-71
2021/05/26 10:10:31;;;;;;;1999.90;999.90;;;13.20;99.90;;;;;;5050008;28;20406;-70
2021/05/26 10:13:04;;;;;;;1999.90;999.90;;;13.40;99.90;;;;;;5050700;28;20407;-68
2021/05/26 10:15:32;;;;;;;1999.90;999.90;;;13.50;99.90;;;;;;5049987;28;21104;-67
2021/05/26 10:18:00;;;;;;;1999.90;999.90;;;13.60;99.90;;;;;;5050900;28;20439;-68
2021/05/26 10:20:32;;;;;;;1999.90;999.90;;;13.60;99.90;;;;;;5050500;28;20407;-68
2021/05/26 10:23:01;;;;;;;1999.90;999.90;;;13.60;99.90;;;;;;5050186;28;20403;-67
2021/05/26 10:25:27;;;;;;;1999.90;999.90;;;13.60;99.90;;;;;;5049945;28;20447;-67
2021/05/26 10:27:55;;;;;;;1999.90;999.90;;;13.80;99.90;;;;;;5050252;28;20427;-68
2021/05/26 10:30:26;;;;;;;1999.90;999.90;;;14.00;99.90;;;;;;5049781;28;21188;-68
2021/05/26 10:32:55;;;;;;;1999.90;999.90;;;14.10;99.90;;;;;;5050789;28;20494;-67
2021/05/26 10:35:25;;;;;;;1999.90;999.90;;;14.20;99.90;;;;;;5049828;28;20515;-67
2021/05/26 10:38:04;;;;;;;1999.90;999.90;;;14.30;99.90;;;;;;5050069;28;20778;-68
2021/05/26 10:40:32;;;;;;;1999.90;999.90;;;14.30;99.90;;;;;;5050106;28;20458;-67
2021/05/26 10:43:13;;;;;;;1999.90;999.90;;;14.30;99.90;;;;;;5050176;28;20440;-67
2021/05/26 10:45:38;;;;;;;1999.90;999.90;;;14.30;99.90;;;;;;5049094;28;20444;-66
2021/05/26 10:48:04;;;;;;;1999.90;999.90;;;14.30;99.90;;;;;;5050253;28;20534;-66
2021/05/26 10:50:49;;;;;;;1999.90;999.90;;;14.30;99.90;;;;;;5050071;28;20213;-67
2021/05/26 10:53:17;;;;;;;1999.90;999.90;;;14.40;99.90;;;;;;5049718;28;20398;-67
2021/05/26 10:55:51;;;;;;;1999.90;999.90;;;14.30;99.90;;;;;;5049488;28;20420;-67
2021/05/26 10:58:20;;;;;;;1999.90;999.90;;;14.30;99.90;;;;;;5049933;28;20517;-66
2021/05/26 11:01:09;;;;;;;1999.90;999.90;;;14.10;99.90;;;;;;5049659;28;20400;-66
2021/05/26 11:03:44;;;;;;;1999.90;999.90;;;14.10;99.90;;;;;;5050068;28;20499;-68
2021/05/26 11:06:13;;;;;;;1999.90;999.90;;;13.80;99.90;;;;;;5049152;28;20495;-67
2021/05/26 11:08:47;;;;;;;1999.90;999.90;;;13.80;99.90;;;;;;5049415;28;20502;-67
2021/05/26 11:11:21;;;;;;;1999.90;999.90;;;13.70;99.90;;;;;;5049909;28;20402;-67
2021/05/26 11:14:13;;;;;;;1999.90;999.90;;;13.70;99.90;;;;;;5049146;28;20400;-68
2021/05/26 11:16:45;;;;;;;1999.90;999.90;;;13.60;99.90;;;;;;5044485;28;20435;-67
2021/05/26 11:19:17;;;;;;;1999.90;999.90;;;13.50;99.90;;;;;;5049755;28;20399;-67
2021/05/26 11:21:53;;;;;;;1999.90;999.90;;;13.40;99.90;;;;;;5049152;28;20496;-68
2021/05/26 11:24:20;;;;;;;1999.90;999.90;;;13.20;99.90;;;;;;5049824;28;20384;-67
2021/05/26 11:26:45;;;;;;;1999.90;999.90;;;13.20;99.90;;;;;;5047720;28;20943;-67
2021/05/26 11:29:11;;;;;;;1999.90;999.90;;;13.40;99.90;;;;;;5049231;28;20451;-68
2021/05/26 11:31:38;;;;;;;1999.90;999.90;;;13.60;99.90;;;;;;5049646;28;20646;-67
2021/05/26 11:34:07;;;;;;;1999.90;999.90;;;13.80;99.90;;;;;;5049736;28;20449;-68
2021/05/26 11:36:53;;;;;;;1999.90;999.90;;;13.90;99.90;;;;;;5048490;28;20866;-67
2021/05/26 11:39:26;;;;;;;1999.90;999.90;;;13.80;99.90;;;;;;5049287;28;20416;-67
2021/05/26 11:41:52;;;;;;;1999.90;999.90;;;13.70;99.90;;;;;;5065229;28;20493;-69
2021/05/26 11:44:19;;;;;;;1999.90;999.90;;;13.90;99.90;;;;;;5069162;28;20463;-67
2021/05/26 11:46:45;;;;;;;1999.90;999.90;;;14.00;99.90;;;;;;5062052;28;20463;-67
2021/05/26 11:49:14;;;;;;;1999.90;999.90;;;14.30;99.90;;;;;;5063961;28;20424;-68
2021/05/26 11:51:40;;;;;;;1999.90;999.90;;;14.70;99.90;;;;;;5059137;28;20440;-68
2021/05/26 11:54:06;;;;;;;1999.90;999.90;;;15.00;99.90;;;;;;5069699;28;20493;-68
2021/05/26 11:56:33;;;;;;;1999.90;999.90;;;15.20;99.90;;;;;;5068586;28;20400;-68
2021/05/26 11:58:59;;;;;;;1999.90;999.90;;;15.60;99.90;;;;;;5069012;28;20435;-67
2021/05/26 12:01:34;;;;;;;1999.90;999.90;;;16.00;99.90;;;;;;5061044;28;20415;-66
2021/05/26 12:04:13;;;;;;;1999.90;999.90;;;16.40;99.90;;;;;;5069387;28;20438;-67